Time;durP1;ratioP1;P1;durP2;ratioP2;P2;SDS_P1;SDS_P2;PMS_P1;PMS_P2;Temp;Humidity;BMP_temperature;BMP_pressure;BME280_temperature;BME280_humidity;BME280_pressure;Samples;Min_cycle;Max_cycle;Signal;HPM_P1;HPM_P2
2023/08/05 00:01:17;;;;;;;4.63;4.22;;;26.30;75.40;;;;;;5067191;28;20128;-70
2023/08/05 00:03:43;;;;;;;5.45;4.22;;;26.20;75.50;;;;;;5065141;28;20115;-70
2023/08/05 00:06:12;;;;;;;4.80;4.00;;;26.20;75.60;;;;;;5067608;28;20127;-70
2023/08/05 00:08:38;;;;;;;3.88;3.53;;;26.20;75.80;;;;;;5065498;28;20534;-71
2023/08/05 00:11:04;;;;;;;4.95;4.00;;;26.20;75.90;;;;;;5064929;28;20115;-71
2023/08/05 00:13:34;;;;;;;4.50;4.10;;;26.20;76.00;;;;;;5063843;28;20040;-70
2023/08/05 00:16:06;;;;;;;4.07;3.60;;;26.20;76.00;;;;;;5064884;28;20036;-70
2023/08/05 00:18:32;;;;;;;5.50;3.90;;;26.20;76.10;;;;;;5063835;28;20032;-71
2023/08/05 00:20:58;;;;;;;4.68;4.18;;;26.20;76.00;;;;;;5066006;28;20120;-71
2023/08/05 00:23:24;;;;;;;6.28;4.50;;;26.10;76.00;;;;;;5064680;28;20734;-71
2023/08/05 00:25:50;;;;;;;5.00;4.18;;;26.20;75.50;;;;;;5064935;28;20076;-71
2023/08/05 00:28:16;;;;;;;5.05;4.20;;;26.10;75.50;;;;;;5065836;28;20039;-70
2023/08/05 00:30:42;;;;;;;7.35;4.40;;;26.20;75.60;;;;;;5062416;28;21418;-71
2023/08/05 00:33:07;;;;;;;4.97;4.07;;;26.10;75.80;;;;;;5067891;28;20445;-71
2023/08/05 00:35:33;;;;;;;5.20;4.07;;;26.20;75.10;;;;;;5060686;28;20029;-71
2023/08/05 00:37:59;;;;;;;5.75;4.15;;;26.20;75.50;;;;;;5063445;28;20037;-71
2023/08/05 00:40:25;;;;;;;5.43;4.25;;;26.20;75.50;;;;;;5067075;28;20056;-72
2023/08/05 00:42:51;;;;;;;7.00;4.20;;;26.20;76.20;;;;;;5062028;28;20508;-71
2023/08/05 00:45:17;;;;;;;4.68;4.28;;;26.10;75.50;;;;;;5063213;28;20115;-71
2023/08/05 00:47:43;;;;;;;5.15;4.03;;;26.20;75.60;;;;;;5068164;28;20032;-71
2023/08/05 00:50:12;;;;;;;5.65;4.15;;;26.20;75.40;;;;;;5062691;28;20135;-71
2023/08/05 00:52:40;;;;;;;7.03;4.80;;;26.20;75.20;;;;;;5063294;28;20072;-71
2023/08/05 00:55:08;;;;;;;7.22;5.05;;;26.20;74.50;;;;;;5063409;28;20143;-71
2023/08/05 00:57:34;;;;;;;5.72;4.53;;;26.10;74.10;;;;;;5079477;28;20047;-71
2023/08/05 01:00:00;;;;;;;6.32;4.72;;;26.10;74.00;;;;;;5066420;28;20084;-71
2023/08/05 01:02:26;;;;;;;5.93;4.53;;;26.10;74.10;;;;;;5060586;28;20032;-71
2023/08/05 01:04:52;;;;;;;7.15;4.38;;;26.00;74.00;;;;;;5066011;28;20039;-71
2023/08/05 01:07:20;;;;;;;5.43;4.30;;;26.00;74.40;;;;;;5066537;28;20083;-71
2023/08/05 01:09:46;;;;;;;5.82;4.38;;;26.00;74.60;;;;;;5061648;28;20534;-71
2023/08/05 01:12:12;;;;;;;5.28;4.20;;;26.00;74.30;;;;;;5063090;28;20064;-71
2023/08/05 01:14:38;;;;;;;4.75;4.30;;;26.00;74.60;;;;;;5066451;28;20064;-71
2023/08/05 01:17:07;;;;;;;5.07;4.32;;;25.90;74.60;;;;;;5063924;28;20725;-73
2023/08/05 01:19:34;;;;;;;4.38;3.83;;;25.90;74.80;;;;;;5079284;28;20108;-73
2023/08/05 01:22:08;;;;;;;4.90;4.40;;;25.90;74.90;;;;;;5063780;28;20442;-72
2023/08/05 01:24:57;;;;;;;6.70;4.53;;;25.90;74.90;;;;;;5064251;28;20029;-72
2023/08/05 01:27:24;;;;;;;8.10;4.93;;;25.90;74.80;;;;;;5064501;28;20127;-72
2023/08/05 01:29:51;;;;;;;5.30;4.15;;;25.90;74.90;;;;;;5066837;28;20186;-69
2023/08/05 01:32:18;;;;;;;7.22;4.47;;;25.90;74.80;;;;;;5062483;28;20574;-70
2023/08/05 01:34:46;;;;;;;5.22;4.43;;;25.90;74.90;;;;;;5067331;28;20085;-70
2023/08/05 01:37:14;;;;;;;6.00;4.35;;;25.90;75.00;;;;;;5063218;28;20048;-70
2023/08/05 01:39:40;;;;;;;6.63;4.78;;;25.90;74.80;;;;;;5064168;28;20039;-70
2023/08/05 01:42:06;;;;;;;4.80;4.05;;;25.90;75.00;;;;;;5069175;28;20178;-70
2023/08/05 01:44:32;;;;;;;5.60;4.20;;;25.90;74.90;;;;;;5060290;28;20396;-70
2023/08/05 01:46:58;;;;;;;6.55;4.43;;;26.00;75.00;;;;;;5043415;28;20036;-70
2023/08/05 01:49:24;;;;;;;7.72;4.18;;;26.00;74.50;;;;;;5066951;28;20059;-70
2023/08/05 01:51:50;;;;;;;7.53;4.53;;;25.90;74.60;;;;;;5062698;28;20125;-70
2023/08/05 01:54:16;;;;;;;7.35;4.93;;;25.90;74.50;;;;;;5063108;28;20139;-70
2023/08/05 01:56:42;;;;;;;5.15;4.53;;;25.90;74.80;;;;;;5064049;28;20033;-70
2023/08/05 01:59:08;;;;;;;6.72;4.40;;;26.00;75.00;;;;;;5063950;28;20036;-70
2023/08/05 02:01:47;;;;;;;7.05;4.30;;;26.00;74.90;;;;;;5062808;28;20025;-70
2023/08/05 02:04:14;;;;;;;7.63;4.30;;;26.00;75.00;;;;;;5061489;28;20439;-70
2023/08/05 02:06:40;;;;;;;6.28;4.35;;;26.00;75.20;;;;;;5061581;28;20618;-70
2023/08/05 02:09:07;;;;;;;6.63;3.97;;;26.00;75.00;;;;;;5062788;28;20143;-70
2023/08/05 02:11:33;;;;;;;6.57;4.03;;;26.00;74.80;;;;;;5045113;28;20523;-73
2023/08/05 02:14:00;;;;;;;6.70;4.40;;;26.00;74.60;;;;;;5065520;28;20032;-73
2023/08/05 02:16:26;;;;;;;6.45;4.35;;;26.00;74.20;;;;;;5065609;28;20139;-72
2023/08/05 02:18:53;;;;;;;8.40;4.63;;;26.00;74.30;;;;;;5063493;28;20555;-72
2023/08/05 02:21:19;;;;;;;6.05;5.25;;;26.00;74.10;;;;;;5062853;28;20071;-73
2023/08/05 02:23:45;;;;;;;9.05;5.10;;;26.10;74.00;;;;;;5061824;28;20028;-70
2023/08/05 02:26:11;;;;;;;6.82;4.25;;;26.20;74.00;;;;;;5061136;28;20116;-69
2023/08/05 02:28:37;;;;;;;9.65;4.93;;;26.20;73.80;;;;;;5060130;28;20052;-70
2023/08/05 02:31:03;;;;;;;6.28;4.47;;;26.30;73.80;;;;;;5063609;28;20503;-70
2023/08/05 02:33:29;;;;;;;7.53;5.18;;;26.30;73.70;;;;;;5059663;28;20094;-70
2023/08/05 02:35:59;;;;;;;6.03;4.85;;;26.30;73.50;;;;;;5061355;28;20029;-71
2023/08/05 02:38:25;;;;;;;7.78;5.25;;;26.30;73.40;;;;;;5066275;28;20044;-70
2023/08/05 02:40:51;;;;;;;7.57;4.20;;;26.40;73.50;;;;;;5067668;28;20473;-70
2023/08/05 02:43:17;;;;;;;7.07;4.70;;;26.40;73.40;;;;;;5059019;28;20040;-70
2023/08/05 02:45:44;;;;;;;7.85;5.10;;;26.50;73.30;;;;;;5064659;28;20047;-70
2023/08/05 02:48:10;;;;;;;7.40;5.10;;;26.60;73.00;;;;;;5064262;28;20050;-69
2023/08/05 02:50:36;;;;;;;7.13;4.90;;;26.70;73.50;;;;;;5062703;28;20688;-71
2023/08/05 02:53:02;;;;;;;8.32;4.80;;;26.70;72.90;;;;;;5062482;28;20144;-70
2023/08/05 02:55:28;;;;;;;7.20;4.68;;;26.70;73.10;;;;;;5062060;28;21194;-71
2023/08/05 02:57:54;;;;;;;7.15;5.05;;;26.80;72.30;;;;;;5066869;28;20041;-71
2023/08/05 03:00:20;;;;;;;10.27;5.28;;;26.70;72.30;;;;;;5066303;28;20670;-71
2023/08/05 03:02:46;;;;;;;7.10;4.82;;;26.70;72.30;;;;;;5070982;28;20406;-71
2023/08/05 03:05:12;;;;;;;8.45;4.80;;;26.80;72.20;;;;;;5067328;28;20064;-71
2023/08/05 03:07:38;;;;;;;6.47;4.60;;;26.70;72.20;;;;;;5068541;28;20125;-71
2023/08/05 03:10:04;;;;;;;9.20;4.82;;;26.70;72.00;;;;;;5069284;28;20032;-71
2023/08/05 03:12:31;;;;;;;8.80;5.32;;;26.70;71.80;;;;;;5065954;28;20025;-71
2023/08/05 03:14:57;;;;;;;6.32;4.93;;;26.70;72.00;;;;;;5065762;28;20412;-71
2023/08/05 03:17:24;;;;;;;6.20;5.05;;;26.70;72.20;;;;;;5065593;28;20120;-71
2023/08/05 03:19:52;;;;;;;8.32;5.32;;;26.70;72.30;;;;;;5065034;28;20043;-71
2023/08/05 03:22:19;;;;;;;10.48;5.30;;;26.70;72.40;;;;;;5066869;28;20028;-71
2023/08/05 03:24:46;;;;;;;7.70;5.43;;;26.70;72.20;;;;;;5063896;28;20542;-70
2023/08/05 03:27:12;;;;;;;6.82;5.10;;;26.70;72.40;;;;;;5066079;28;20032;-71
2023/08/05 03:29:40;;;;;;;8.27;5.20;;;26.70;72.60;;;;;;5063513;28;20028;-71
2023/08/05 03:32:08;;;;;;;5.22;4.72;;;26.70;72.60;;;;;;5069020;28;20033;-72
2023/08/05 03:34:34;;;;;;;8.23;5.25;;;26.70;72.60;;;;;;5068580;28;20025;-73
2023/08/05 03:37:02;;;;;;;6.50;4.22;;;26.70;72.50;;;;;;5062914;28;20033;-73
2023/08/05 03:39:28;;;;;;;6.63;4.95;;;26.60;72.90;;;;;;5065993;28;20127;-72
2023/08/05 03:41:55;;;;;;;8.65;5.40;;;26.60;72.50;;;;;;5065867;28;20488;-74
2023/08/05 03:44:21;;;;;;;7.18;4.63;;;26.60;72.50;;;;;;5065265;28;20037;-71
2023/08/05 03:46:47;;;;;;;7.15;4.82;;;26.60;72.70;;;;;;5066580;28;20451;-70
2023/08/05 03:49:14;;;;;;;7.65;5.10;;;26.60;72.70;;;;;;5063277;28;20040;-70
2023/08/05 03:51:40;;;;;;;6.13;5.03;;;26.60;73.10;;;;;;5063537;28;20040;-70
2023/08/05 03:54:07;;;;;;;5.80;4.30;;;26.60;73.00;;;;;;5069592;28;20091;-70
2023/08/05 03:56:33;;;;;;;6.45;4.63;;;26.60;73.10;;;;;;5065213;28;20040;-70
2023/08/05 03:59:01;;;;;;;8.27;5.18;;;26.60;72.90;;;;;;5068504;28;20121;-71
2023/08/05 04:01:29;;;;;;;6.57;5.05;;;26.60;72.90;;;;;;5061857;28;20112;-70
2023/08/05 04:03:55;;;;;;;6.18;4.75;;;26.60;73.00;;;;;;5068465;28;20037;-70
2023/08/05 04:06:21;;;;;;;5.93;4.38;;;26.70;73.10;;;;;;5063670;28;20036;-70
2023/08/05 04:08:53;;;;;;;5.93;4.10;;;26.80;73.10;;;;;;5062562;28;20028;-70
2023/08/05 04:11:22;;;;;;;6.28;4.28;;;26.90;73.10;;;;;;5067639;28;20032;-70
2023/08/05 04:13:51;;;;;;;5.20;4.40;;;27.10;73.10;;;;;;5064193;28;20037;-70
2023/08/05 04:16:17;;;;;;;6.60;4.40;;;27.20;72.80;;;;;;5064655;28;20045;-70
2023/08/05 04:18:48;;;;;;;5.57;4.47;;;27.40;72.40;;;;;;5066393;28;20090;-70
2023/08/05 04:21:14;;;;;;;9.27;4.80;;;27.50;72.30;;;;;;5064588;28;20025;-70
2023/08/05 04:23:42;;;;;;;5.95;4.03;;;27.60;71.90;;;;;;5061736;28;20038;-71
2023/08/05 04:26:08;;;;;;;6.90;4.47;;;27.70;71.80;;;;;;5065339;28;20486;-70
2023/08/05 04:28:34;;;;;;;5.75;4.25;;;27.70;71.60;;;;;;5064222;28;20106;-71
2023/08/05 04:31:00;;;;;;;4.90;4.40;;;27.80;71.30;;;;;;5062869;28;20040;-70
2023/08/05 04:33:26;;;;;;;7.00;4.20;;;27.90;71.20;;;;;;5062701;28;20036;-70
2023/08/05 04:35:52;;;;;;;6.60;4.18;;;28.00;71.10;;;;;;5066376;28;20031;-70
2023/08/05 04:38:18;;;;;;;4.57;3.88;;;28.10;71.10;;;;;;5062065;28;20051;-69
2023/08/05 04:40:44;;;;;;;5.70;4.30;;;28.10;71.00;;;;;;5064749;28;20377;-71
2023/08/05 04:43:11;;;;;;;7.05;4.20;;;28.20;70.80;;;;;;5062885;28;20032;-71
2023/08/05 04:45:38;;;;;;;4.50;4.07;;;28.30;70.70;;;;;;5064349;28;20068;-70
2023/08/05 04:48:05;;;;;;;5.82;3.90;;;28.40;70.70;;;;;;5062880;28;20123;-70
2023/08/05 04:50:31;;;;;;;6.10;4.00;;;28.40;70.50;;;;;;5065058;28;20150;-70
2023/08/05 04:52:57;;;;;;;4.75;3.60;;;28.50;70.40;;;;;;5069229;28;20135;-70
2023/08/05 04:55:23;;;;;;;5.65;3.80;;;28.50;70.30;;;;;;5064550;28;20048;-70
2023/08/05 04:57:53;;;;;;;6.63;4.25;;;28.60;70.20;;;;;;5063181;28;20036;-71
2023/08/05 05:00:19;;;;;;;5.38;3.75;;;28.60;70.10;;;;;;5065168;28;20036;-70
2023/08/05 05:02:45;;;;;;;5.75;3.92;;;28.70;70.00;;;;;;5067281;28;20036;-71
2023/08/05 05:05:11;;;;;;;5.10;3.67;;;28.80;70.00;;;;;;5068145;28;20040;-73
2023/08/05 05:07:37;;;;;;;7.55;4.28;;;28.90;69.90;;;;;;5064023;28;20574;-73
2023/08/05 05:10:03;;;;;;;4.53;3.55;;;28.90;69.80;;;;;;5067136;28;20037;-71
2023/08/05 05:12:29;;;;;;;5.88;3.97;;;28.90;69.50;;;;;;5064635;28;20044;-72
2023/08/05 05:15:13;;;;;;;4.35;3.03;;;29.00;69.40;;;;;;5064884;28;20032;-72
2023/08/05 05:17:39;;;;;;;4.25;3.65;;;29.10;69.50;;;;;;5065378;28;20028;-70
2023/08/05 05:20:06;;;;;;;5.45;3.90;;;29.10;69.30;;;;;;5063382;28;20071;-69
2023/08/05 05:22:33;;;;;;;3.65;3.25;;;29.20;69.20;;;;;;5065350;28;20036;-70
2023/08/05 05:25:17;;;;;;;5.00;3.33;;;29.30;68.90;;;;;;5063544;28;20067;-70
2023/08/05 05:28:02;;;;;;;5.57;3.45;;;29.40;69.00;;;;;;5063178;28;20101;-70
2023/08/05 05:30:28;;;;;;;6.10;3.75;;;29.40;68.80;;;;;;5064216;28;20511;-70
2023/08/05 05:32:54;;;;;;;3.60;3.05;;;29.50;68.90;;;;;;5062244;28;20483;-73
2023/08/05 05:35:20;;;;;;;5.57;3.53;;;29.50;68.30;;;;;;5063036;28;20024;-73
2023/08/05 05:37:45;;;;;;;5.30;3.30;;;29.60;68.10;;;;;;5062635;28;20117;-72
2023/08/05 05:40:11;;;;;;;3.92;3.53;;;29.60;68.20;;;;;;5063797;28;20028;-72
2023/08/05 05:42:37;;;;;;;5.72;3.05;;;29.70;68.30;;;;;;5062420;28;20063;-72
2023/08/05 05:45:04;;;;;;;4.97;3.22;;;29.70;68.10;;;;;;5063243;28;20501;-73
2023/08/05 05:47:30;;;;;;;4.10;3.42;;;29.80;67.90;;;;;;5062514;28;20053;-72
2023/08/05 05:49:56;;;;;;;3.92;3.10;;;29.90;67.30;;;;;;5059761;28;20543;-72
2023/08/05 05:52:22;;;;;;;5.30;3.33;;;29.90;67.10;;;;;;5063107;28;20127;-73
2023/08/05 05:54:48;;;;;;;3.88;3.10;;;29.90;67.20;;;;;;5060987;28;20045;-72
2023/08/05 05:57:13;;;;;;;5.88;3.25;;;30.00;67.30;;;;;;5065965;28;20028;-70
2023/08/05 05:59:39;;;;;;;4.45;2.90;;;30.00;66.90;;;;;;5059669;28;20031;-70
2023/08/05 06:02:07;;;;;;;4.75;3.28;;;30.00;66.70;;;;;;5065638;28;20127;-71
2023/08/05 06:04:33;;;;;;;3.75;2.90;;;30.10;66.80;;;;;;5061763;28;20041;-71
2023/08/05 06:07:01;;;;;;;4.88;2.72;;;30.10;66.60;;;;;;5062536;28;20105;-71
2023/08/05 06:09:27;;;;;;;3.10;2.80;;;30.20;66.50;;;;;;5063389;28;20087;-72
2023/08/05 06:11:54;;;;;;;3.15;2.85;;;30.30;66.30;;;;;;5067365;28;20041;-70
2023/08/05 06:14:21;;;;;;;2.88;2.67;;;30.30;66.10;;;;;;5062392;28;20055;-71
2023/08/05 06:16:47;;;;;;;4.57;2.50;;;30.30;66.00;;;;;;5064818;28;20181;-71
2023/08/05 06:19:13;;;;;;;3.25;2.60;;;30.40;65.70;;;;;;5062863;28;20036;-71
2023/08/05 06:21:40;;;;;;;3.97;2.90;;;30.50;65.20;;;;;;5060439;28;20047;-71
2023/08/05 06:24:05;;;;;;;2.97;2.42;;;30.60;64.90;;;;;;5064739;28;20499;-73
2023/08/05 06:26:31;;;;;;;3.33;2.55;;;30.60;64.60;;;;;;5067916;28;20028;-73
2023/08/05 06:28:58;;;;;;;4.13;2.53;;;30.70;64.30;;;;;;5062160;28;20128;-72
2023/08/05 06:31:23;;;;;;;4.60;2.33;;;30.70;64.30;;;;;;5063615;28;20033;-73
2023/08/05 06:33:49;;;;;;;2.83;2.20;;;30.70;64.50;;;;;;5068118;28;20044;-72
2023/08/05 06:36:15;;;;;;;3.03;2.30;;;30.60;64.50;;;;;;5066791;28;20423;-72
2023/08/05 06:38:41;;;;;;;2.30;2.10;;;30.50;64.70;;;;;;5064451;28;20455;-71
2023/08/05 06:41:08;;;;;;;3.90;2.30;;;30.50;64.60;;;;;;5065694;28;20064;-70
2023/08/05 06:43:33;;;;;;;5.00;2.22;;;30.40;63.10;;;;;;5066469;28;20125;-70
2023/08/05 06:45:59;;;;;;;3.05;2.10;;;30.40;63.50;;;;;;5066106;28;20130;-71
2023/08/05 06:48:25;;;;;;;3.08;2.28;;;30.40;63.70;;;;;;5065553;28;22047;-70
2023/08/05 06:50:51;;;;;;;2.22;2.05;;;30.30;63.70;;;;;;5069665;28;20032;-70
2023/08/05 06:53:17;;;;;;;4.85;2.38;;;30.30;63.60;;;;;;5066818;28;20051;-70
2023/08/05 06:55:43;;;;;;;3.85;1.80;;;30.30;63.90;;;;;;5067418;28;20033;-71
2023/08/05 06:58:09;;;;;;;3.60;1.80;;;30.30;64.00;;;;;;5064691;28;20055;-70
2023/08/05 07:00:35;;;;;;;2.25;1.92;;;30.30;64.00;;;;;;5067276;28;20035;-70
2023/08/05 07:03:01;;;;;;;2.30;1.77;;;30.30;64.00;;;;;;5066609;28;20043;-70
2023/08/05 07:05:29;;;;;;;1.75;1.65;;;30.30;64.50;;;;;;5065081;28;20048;-71
2023/08/05 07:07:55;;;;;;;2.88;1.75;;;30.30;64.40;;;;;;5064604;28;20037;-70
2023/08/05 07:10:21;;;;;;;4.13;1.77;;;30.30;64.30;;;;;;5067789;28;20078;-70
2023/08/05 07:12:47;;;;;;;2.38;2.03;;;30.30;63.90;;;;;;5066061;28;20045;-70
2023/08/05 07:15:13;;;;;;;3.10;1.80;;;30.20;63.60;;;;;;5065584;28;20533;-71
2023/08/05 07:17:38;;;;;;;2.92;1.85;;;30.30;64.10;;;;;;5064851;28;20040;-71
2023/08/05 07:20:06;;;;;;;4.00;2.25;;;30.30;64.10;;;;;;5067666;28;20040;-71
2023/08/05 07:22:32;;;;;;;2.35;1.70;;;30.30;62.20;;;;;;5063438;28;20033;-71
2023/08/05 07:24:58;;;;;;;1.95;1.77;;;30.30;63.10;;;;;;5067236;28;20526;-71
2023/08/05 07:27:24;;;;;;;2.45;1.67;;;30.30;62.70;;;;;;5067732;28;20031;-71
2023/08/05 07:29:49;;;;;;;4.38;1.92;;;30.30;62.70;;;;;;5064651;28;20037;-71
2023/08/05 07:32:15;;;;;;;3.13;1.98;;;30.30;63.10;;;;;;5066259;28;20040;-70
2023/08/05 07:34:41;;;;;;;2.08;1.65;;;30.30;63.30;;;;;;5068506;28;20036;-71
2023/08/05 07:37:08;;;;;;;2.45;2.00;;;30.30;63.20;;;;;;5064748;28;20626;-70
2023/08/05 07:39:34;;;;;;;1.90;1.50;;;30.30;62.60;;;;;;5063076;28;20032;-71
2023/08/05 07:42:02;;;;;;;1.50;1.40;;;30.30;62.80;;;;;;5065960;28;20039;-71
2023/08/05 07:44:31;;;;;;;3.17;1.58;;;30.30;62.70;;;;;;5064978;28;20068;-71
2023/08/05 07:46:58;;;;;;;1.50;1.40;;;30.30;62.80;;;;;;5068248;28;20634;-71
2023/08/05 07:49:25;;;;;;;1.75;1.45;;;30.30;62.70;;;;;;5067807;28;20122;-71
2023/08/05 07:51:53;;;;;;;2.20;1.55;;;30.20;63.10;;;;;;5069200;28;20715;-71
2023/08/05 07:54:24;;;;;;;2.22;1.40;;;30.20;63.20;;;;;;5067332;28;20052;-70
2023/08/05 07:56:50;;;;;;;2.20;1.20;;;30.20;63.40;;;;;;5068554;28;21402;-71
2023/08/05 07:59:17;;;;;;;2.70;1.65;;;30.20;63.20;;;;;;5065076;28;20412;-71
2023/08/05 08:01:45;;;;;;;2.83;1.45;;;30.20;63.60;;;;;;5066980;28;20035;-71
2023/08/05 08:04:13;;;;;;;2.58;1.30;;;30.20;63.40;;;;;;5063327;28;20035;-71
2023/08/05 08:06:39;;;;;;;1.70;1.60;;;30.10;63.60;;;;;;5069038;28;20040;-70
2023/08/05 08:09:05;;;;;;;2.15;1.45;;;30.10;63.70;;;;;;5067243;28;20502;-71
2023/08/05 08:11:31;;;;;;;3.05;1.88;;;30.10;63.70;;;;;;5064007;28;20404;-71
2023/08/05 08:13:57;;;;;;;2.28;1.35;;;30.10;63.80;;;;;;5063406;28;20044;-71
2023/08/05 08:16:23;;;;;;;2.55;1.30;;;30.10;63.40;;;;;;5065359;28;20431;-70
2023/08/05 08:18:49;;;;;;;1.50;1.40;;;30.10;63.70;;;;;;5063344;28;20431;-71
2023/08/05 08:21:15;;;;;;;3.58;1.40;;;30.10;63.50;;;;;;5068340;28;20036;-71
2023/08/05 08:23:41;;;;;;;2.58;1.30;;;30.10;63.60;;;;;;5067862;28;20035;-71
2023/08/05 08:26:07;;;;;;;2.08;1.40;;;30.00;63.30;;;;;;5063757;28;20062;-70
2023/08/05 08:28:33;;;;;;;2.30;1.73;;;30.00;63.30;;;;;;5062763;28;20036;-70
2023/08/05 08:30:59;;;;;;;2.72;1.40;;;30.00;63.10;;;;;;5069200;28;20094;-71
2023/08/05 08:33:26;;;;;;;3.33;1.50;;;30.00;63.10;;;;;;5067477;28;20093;-72
2023/08/05 08:35:52;;;;;;;1.95;1.30;;;30.00;63.00;;;;;;5062552;28;20031;-72
2023/08/05 08:38:19;;;;;;;2.70;1.30;;;30.00;63.30;;;;;;5061927;28;20120;-72
2023/08/05 08:40:49;;;;;;;3.67;1.80;;;30.00;63.20;;;;;;5066501;28;20052;-72
2023/08/05 08:43:20;;;;;;;2.92;1.63;;;30.00;63.10;;;;;;5064107;28;20628;-74
2023/08/05 08:45:52;;;;;;;1.75;1.20;;;29.90;63.20;;;;;;5064024;28;20033;-73
2023/08/05 08:48:18;;;;;;;3.10;1.48;;;29.90;63.30;;;;;;5066075;28;20115;-73
2023/08/05 08:50:46;;;;;;;1.98;1.40;;;29.90;63.30;;;;;;5067050;28;20489;-72
2023/08/05 08:53:15;;;;;;;3.67;1.42;;;29.90;63.30;;;;;;5066837;28;20504;-72
2023/08/05 08:55:42;;;;;;;1.65;1.52;;;29.90;63.50;;;;;;5066581;28;20036;-71
2023/08/05 08:58:09;;;;;;;1.52;1.42;;;29.90;63.50;;;;;;5060581;28;20036;-71
2023/08/05 09:00:36;;;;;;;2.45;1.50;;;29.90;63.50;;;;;;5062469;28;20399;-71
2023/08/05 09:03:04;;;;;;;3.05;1.63;;;29.80;63.50;;;;;;5067361;28;20039;-72
2023/08/05 09:05:54;;;;;;;1.83;1.40;;;29.80;63.50;;;;;;5061855;28;20064;-74
2023/08/05 09:08:20;;;;;;;2.90;1.67;;;29.80;63.70;;;;;;5062394;28;20066;-74
2023/08/05 09:10:46;;;;;;;1.98;1.60;;;29.80;63.70;;;;;;5064171;28;20036;-73
2023/08/05 09:13:16;;;;;;;1.90;1.38;;;29.80;63.80;;;;;;5067187;28;20032;-73
2023/08/05 09:15:42;;;;;;;2.28;1.65;;;29.80;63.80;;;;;;5063512;28;20038;-72
2023/08/05 09:18:08;;;;;;;2.28;1.60;;;29.80;64.00;;;;;;5062428;28;20538;-71
2023/08/05 09:20:35;;;;;;;2.10;1.60;;;29.80;64.00;;;;;;5061795;28;20461;-71
2023/08/05 09:23:03;;;;;;;4.25;1.63;;;29.80;64.10;;;;;;5066346;28;20032;-71
2023/08/05 09:25:31;;;;;;;2.33;1.40;;;29.70;64.00;;;;;;5065959;28;20120;-71
2023/08/05 09:27:57;;;;;;;1.52;1.42;;;29.70;64.20;;;;;;5065794;28;20048;-71
2023/08/05 09:30:25;;;;;;;1.55;1.40;;;29.70;64.20;;;;;;5063310;28;20028;-70
2023/08/05 09:32:52;;;;;;;1.48;1.30;;;29.70;64.20;;;;;;5064412;28;20036;-71
2023/08/05 09:35:18;;;;;;;2.90;1.48;;;29.70;64.40;;;;;;5062969;28;20033;-70
2023/08/05 09:37:46;;;;;;;1.83;1.65;;;29.70;64.40;;;;;;5062338;28;20033;-71
2023/08/05 09:40:18;;;;;;;1.63;1.50;;;29.70;64.40;;;;;;5062432;28;20777;-71
2023/08/05 09:42:48;;;;;;;2.28;1.70;;;29.70;64.40;;;;;;5061390;28;20035;-72
2023/08/05 09:45:17;;;;;;;1.83;1.40;;;29.70;64.40;;;;;;5062805;28;20073;-70
2023/08/05 09:47:47;;;;;;;2.47;1.50;;;29.70;64.60;;;;;;5064534;28;20519;-71
2023/08/05 09:50:15;;;;;;;1.63;1.52;;;29.70;64.60;;;;;;5062849;28;20051;-71
2023/08/05 09:52:41;;;;;;;2.13;1.52;;;29.70;64.60;;;;;;5062464;28;20465;-70
2023/08/05 09:55:13;;;;;;;2.40;1.73;;;29.70;64.40;;;;;;5061955;28;20044;-70
2023/08/05 09:57:41;;;;;;;1.63;1.52;;;29.70;64.30;;;;;;5062459;28;20040;-71
2023/08/05 10:00:11;;;;;;;2.33;1.65;;;29.70;64.40;;;;;;5060951;28;20084;-73
2023/08/05 10:02:45;;;;;;;1.50;1.40;;;29.70;64.20;;;;;;5062119;28;20044;-73
2023/08/05 10:05:12;;;;;;;1.75;1.52;;;29.70;64.00;;;;;;5063789;28;20040;-72
2023/08/05 10:07:40;;;;;;;2.97;1.77;;;29.70;64.00;;;;;;5059801;28;20425;-72
2023/08/05 10:10:15;;;;;;;1.75;1.65;;;29.60;64.00;;;;;;5065822;28;20041;-75
2023/08/05 10:12:51;;;;;;;3.17;1.70;;;29.60;63.90;;;;;;5064760;28;20130;-73
2023/08/05 10:15:34;;;;;;;2.50;1.40;;;29.60;63.90;;;;;;5061472;28;20041;-73
2023/08/05 10:18:00;;;;;;;1.92;1.70;;;29.60;63.90;;;;;;5064653;28;20048;-73
2023/08/05 10:20:34;;;;;;;1.75;1.48;;;29.60;63.90;;;;;;5066231;28;20032;-73
2023/08/05 10:23:03;;;;;;;2.35;1.70;;;29.60;63.90;;;;;;5063717;28;20214;-73
2023/08/05 10:26:02;;;;;;;1.95;1.85;;;29.60;63.70;;;;;;5061879;28;20306;-71
2023/08/05 10:28:34;;;;;;;2.00;1.70;;;29.60;63.70;;;;;;5063183;28;20067;-71
2023/08/05 10:31:04;;;;;;;2.35;1.70;;;29.60;63.70;;;;;;5062691;28;20035;-71
2023/08/05 10:33:30;;;;;;;3.05;1.95;;;29.60;63.70;;;;;;5064023;28;20644;-71
2023/08/05 10:36:05;;;;;;;2.70;1.55;;;29.60;63.90;;;;;;5064079;28;20083;-71
2023/08/05 10:38:41;;;;;;;3.35;1.90;;;29.60;64.60;;;;;;5059285;28;20135;-71
2023/08/05 10:41:10;;;;;;;1.65;1.55;;;29.60;63.90;;;;;;5065263;28;21569;-70
2023/08/05 10:43:38;;;;;;;4.05;1.85;;;29.60;63.90;;;;;;5063377;28;20044;-71
2023/08/05 10:46:07;;;;;;;3.10;2.08;;;29.60;63.90;;;;;;5062496;28;20033;-72
2023/08/05 10:48:38;;;;;;;2.88;1.65;;;29.50;63.80;;;;;;5060204;28;20028;-71
2023/08/05 10:51:09;;;;;;;1.50;1.40;;;29.60;63.80;;;;;;5064923;28;20060;-71
2023/08/05 10:53:35;;;;;;;1.83;1.70;;;29.60;63.80;;;;;;5061986;28;20041;-71
2023/08/05 10:56:01;;;;;;;2.72;1.70;;;29.60;63.80;;;;;;5060486;28;20032;-71
2023/08/05 10:58:28;;;;;;;1.90;1.70;;;29.50;63.80;;;;;;5062526;28;20123;-71
2023/08/05 11:01:02;;;;;;;3.70;1.40;;;29.50;63.70;;;;;;5065116;28;20028;-72
2023/08/05 11:03:37;;;;;;;2.40;1.70;;;29.60;63.70;;;;;;5059340;28;20035;-72
2023/08/05 11:06:05;;;;;;;2.00;1.50;;;29.50;63.20;;;;;;5062488;28;20056;-74
2023/08/05 11:08:33;;;;;;;2.92;1.80;;;29.50;63.30;;;;;;5061654;28;20045;-73
2023/08/05 11:11:07;;;;;;;2.05;1.83;;;29.50;63.30;;;;;;5063658;28;20063;-74
2023/08/05 11:13:38;;;;;;;2.85;1.60;;;29.50;63.40;;;;;;5060796;28;20037;-73
2023/08/05 11:16:14;;;;;;;2.20;2.00;;;29.50;63.40;;;;;;5064154;28;20494;-73
2023/08/05 11:18:45;;;;;;;3.58;2.05;;;29.50;63.40;;;;;;5063514;28;20109;-71
2023/08/05 11:21:15;;;;;;;2.35;1.70;;;29.50;63.40;;;;;;5068572;28;20035;-71
2023/08/05 11:23:42;;;;;;;3.33;1.90;;;29.50;63.40;;;;;;5067010;28;20032;-72
2023/08/05 11:26:10;;;;;;;1.95;1.55;;;29.50;63.20;;;;;;5063192;28;20063;-72
2023/08/05 11:28:42;;;;;;;4.00;1.60;;;29.50;63.20;;;;;;5069718;28;20041;-72
2023/08/05 11:31:08;;;;;;;2.10;1.83;;;29.50;63.00;;;;;;5065393;28;20037;-72
2023/08/05 11:33:34;;;;;;;1.80;1.70;;;29.50;62.90;;;;;;5062729;28;20032;-72
2023/08/05 11:36:00;;;;;;;2.15;1.70;;;29.50;62.50;;;;;;5066993;28;20035;-72
2023/08/05 11:38:27;;;;;;;2.08;1.85;;;29.50;62.70;;;;;;5067142;28;20029;-72
2023/08/05 11:40:55;;;;;;;2.28;1.60;;;29.50;62.70;;;;;;5068001;28;20029;-71
2023/08/05 11:43:22;;;;;;;1.60;1.50;;;29.40;62.50;;;;;;5064378;28;20415;-71
2023/08/05 11:45:49;;;;;;;2.00;1.70;;;29.40;62.40;;;;;;5067223;28;20047;-74
2023/08/05 11:48:26;;;;;;;2.78;2.00;;;29.40;62.30;;;;;;5065356;28;20033;-73
2023/08/05 11:51:01;;;;;;;1.98;1.73;;;29.40;62.20;;;;;;5066874;28;20040;-73
2023/08/05 11:53:28;;;;;;;2.35;1.90;;;29.40;62.30;;;;;;5066658;28;20040;-73
2023/08/05 11:55:54;;;;;;;4.43;2.00;;;29.40;62.20;;;;;;5065235;28;20044;-73
2023/08/05 11:58:22;;;;;;;4.32;1.77;;;29.40;62.40;;;;;;5066071;28;20606;-73
2023/08/05 12:00:54;;;;;;;2.45;2.25;;;29.40;62.50;;;;;;5065794;28;20120;-72
2023/08/05 12:03:20;;;;;;;2.03;1.83;;;29.40;62.50;;;;;;5067981;28;21203;-71
2023/08/05 12:05:46;;;;;;;3.28;1.90;;;29.40;62.50;;;;;;5067067;28;20130;-72
2023/08/05 12:08:33;;;;;;;2.50;1.90;;;29.40;62.40;;;;;;5064789;28;20035;-71
2023/08/05 12:10:59;;;;;;;2.60;1.90;;;29.40;62.50;;;;;;5067905;28;20335;-72
2023/08/05 12:13:24;;;;;;;2.00;1.90;;;29.40;62.40;;;;;;5066889;28;20586;-72
2023/08/05 12:15:50;;;;;;;2.13;1.77;;;29.30;62.40;;;;;;5063055;28;21165;-74
2023/08/05 12:18:17;;;;;;;2.65;2.10;;;29.40;62.40;;;;;;5064275;28;20504;-73
2023/08/05 12:20:47;;;;;;;2.33;2.00;;;29.40;62.30;;;;;;5064808;28;20411;-73
2023/08/05 12:23:13;;;;;;;2.95;1.98;;;29.40;62.30;;;;;;5066159;28;20028;-73
2023/08/05 12:25:39;;;;;;;2.47;1.95;;;29.40;62.50;;;;;;5068848;28;20029;-71
2023/08/05 12:28:04;;;;;;;4.55;2.05;;;29.30;62.40;;;;;;5061667;28;20546;-71
2023/08/05 12:30:30;;;;;;;2.47;1.95;;;29.40;62.40;;;;;;5066139;28;20034;-72
2023/08/05 12:32:58;;;;;;;7.90;1.88;;;29.30;62.30;;;;;;5064085;28;20124;-71
2023/08/05 12:35:27;;;;;;;2.10;1.90;;;29.30;62.40;;;;;;5064771;28;20063;-72
2023/08/05 12:37:53;;;;;;;2.50;2.13;;;29.30;62.20;;;;;;5066207;28;20123;-73
2023/08/05 12:40:19;;;;;;;3.25;2.05;;;29.30;62.20;;;;;;5064507;28;20036;-72
2023/08/05 12:42:45;;;;;;;2.40;2.10;;;29.30;62.90;;;;;;5061839;28;20422;-72
2023/08/05 12:45:11;;;;;;;3.70;2.20;;;29.30;62.10;;;;;;5065304;28;20039;-72
2023/08/05 12:47:38;;;;;;;3.10;2.10;;;29.30;61.80;;;;;;5064577;28;20037;-72
2023/08/05 12:50:06;;;;;;;4.00;2.00;;;29.30;61.60;;;;;;5064803;28;20416;-72